Louisville, KY

10:18 PM EDT on June 01, 2015 (GMT -0400)
Towne Orchard subdivision of the Highlands | | Change Station
CLOSE
Current Station
Personal Weather Station
Location: Louisville, KY
Elevation: 525 ft
Nearby Weather Stations

Elev 525 ft 38.21 °N, 85.70 °W | Updated 27 seconds ago

Overcast
Overcast
58.6 °F
Feels Like 58.6 °F
N
0.7
Wind Variable Wind from SE
Gusts 1.6 mph

Today
High -- | Low -- °F
--% Chance of Precip.
Yesterday
High -- | Low -- °F
Precip. -- in
6:21 AM 9:00 PM
Full, 100% visible
Pressure 30.13 in
Visibility -9999.0 miles
Clouds Overcast 1400 ft
Dew Point 58 °F
Humidity 97%
Rainfall 0.12 in
Snow Depth Not available.
UV 0 out of 12
Pollen 5.40 out of 12
Air Quality Not available.
Flu Activity No Activity
METAR KLOU 020153Z 03004KT OVC014 14/11 A3013 RMK AO2 SLP201 T01440111 $

More Conditions Fewer Conditions

Pressure 30.13 in
Visibility -9999.0 miles
Clouds Overcast 1400 ft
Dew Point 58 °F
Humidity 97%
Rainfall 0.12 in
Snow Depth Not available.
UV 0 out of 12
Pollen 5.40 out of 12
Air Quality Not available.
Flu Activity No Activity
METAR KLOU 020153Z 03004KT OVC014 14/11 A3013 RMK AO2 SLP201 T01440111 $

More Conditions Fewer Conditions

10-Day Weather Forecast

Almanac

Astronomy

Jun. 01, 2015 Rise Set
Actual Time
Civil Twilight
Nautical Twilight
Astronomical Twilight
Moon
Length of Visible Light
Length of Day
Tomorrow will be .
, % of the Moon is Illuminated

Today's Extremes

State Highs State Lows

Community

WunderPhotos

Upload Photos

1,825,857 photos uploaded!

WunderBlogs® & News

Nearby

Air Quality

  Air Quality AQ Index Pollutant
Not available.

Snow Depth

Station Depth Elevation

Earthquake Activity

City Distance Mag. Time & Date
Minimum magnitude displayed is 2.5.

Coastal Water Temperatures

Place Temperature

Stations

Nearby Weather Stations

Station Location Temp. Windchill Dew Point Humidity Wind Precip. Elev Updated Type